Change Of Latitude — WDF6082 — position and weather

sailwx.info

Track history (hours):
 
Tides and Currents Weather Stations Pressure Air Temp Water Temp Dewpoint Dewpoint Depression Visibility Wind Speed Wind Dir Waves Ship Positions

Change Of Latitude

Owner: Donrah LLC, Bellingham, WA. More information available from US FCC via Universal Licensing System and Coast Guard Vessel Documentation Center.

Last reported at 2017-Aug-13 20:11 UTC. Time now 2017-Aug-17 01:52 UTC.
Position N 50°46' W 127°22'.

Length 15 m.

Type: Pleasure craft. MMSI: 367470440.

Date/timePositionNaut miles runAvg speedWind from/ knotsBaromVisibWave heightAir tempDewpointWater temp
2017-Aug-13 20:11N 50°46' W 127°22'2 8.3
2017-Aug-13 19:59N 50°47' W 127°24'4 8.7
2017-Aug-13 19:29N 50°51' W 127°29'4 7.5
2017-Aug-13 18:59N 50°54' W 127°32'3 6.1
2017-Aug-13 18:30N 50°57' W 127°34'4 8.2
2017-Aug-13 18:00N 51°00' W 127°37'28 7.9
2017-Aug-13 14:27N 51°28' W 127°46'1 2.7
2017-Aug-13 13:56N 51°29' W 127°45'1 0.0
2017-Aug-12 19:20N 51°29' W 127°46'2 7.3
2017-Aug-12 19:00N 51°31' W 127°48'5 8.5
2017-Aug-12 18:24N 51°36' W 127°48'3 7.0
2017-Aug-12 18:00N 51°38' W 127°51'4 8.2
2017-Aug-12 17:29N 51°39' W 127°58'4 7.7
2017-Aug-12 17:00N 51°39' W 128°04'3 6.4
2017-Aug-12 16:31N 51°42' W 128°06'4 8.3
2017-Aug-12 16:00N 51°45' W 128°10'4 8.4
2017-Aug-12 15:30N 51°50' W 128°10'2 3.6
2017-Aug-12 15:00N 51°50' W 128°13'0 0.3
2017-Aug-12 13:23N 51°50' W 128°13'0 0.0
2017-Aug-12 12:53N 51°50' W 128°13'0 0.0
2017-Aug-12 12:23N 51°50' W 128°13'0 0.0
2017-Aug-12 11:56N 51°50' W 128°13'0 0.0
2017-Aug-12 11:23N 51°50' W 128°13'0 0.0
2017-Aug-12 10:59N 51°50' W 128°13'0 0.0
2017-Aug-12 08:29N 51°50' W 128°13'0 0.0
2017-Aug-12 07:59N 51°50' W 128°13'0 0.0
2017-Aug-12 07:23N 51°50' W 128°13'0 0.0
2017-Aug-12 06:56N 51°50' W 128°13'0 0.0
2017-Aug-12 06:23N 51°50' W 128°13'0 0.0
2017-Aug-12 05:56N 51°50' W 128°13'0 0.0
2017-Aug-12 05:23N 51°50' W 128°13'0 0.0
2017-Aug-12 03:17N 51°50' W 128°13'0 0.0
2017-Aug-12 02:47N 51°50' W 128°13'0 0.0
2017-Aug-11 22:59N 51°50' W 128°13'0 0.0
2017-Aug-11 22:17N 51°50' W 128°13'0 0.0
2017-Aug-11 21:59N 51°50' W 128°13'0 0.2
2017-Aug-11 20:13N 51°50' W 128°13'  
Track history (hours):
 
Tides and Currents Weather Stations Pressure Air Temp Water Temp Dewpoint Dewpoint Depression Visibility Wind Speed Wind Dir Waves Ship Positions

Change Of Latitude

Owner: Donrah LLC, Bellingham, WA. More information available from US FCC via Universal Licensing System and Coast Guard Vessel Documentation Center.

Last reported at 2017-Aug-13 20:11 UTC. Time now 2017-Aug-17 01:52 UTC.
Position N 50°46' W 127°22'.

Length 15 m.

Type: Pleasure craft. MMSI: 367470440.

Date/timePositionNaut miles runAvg speedWind from/ knotsBaromVisibWave heightAir tempDewpointWater temp
2017-Aug-13 20:11N 50°46' W 127°22'2 8.3
2017-Aug-13 19:59N 50°47' W 127°24'4 8.7
2017-Aug-13 19:29N 50°51' W 127°29'4 7.5
2017-Aug-13 18:59N 50°54' W 127°32'3 6.1
2017-Aug-13 18:30N 50°57' W 127°34'4 8.2
2017-Aug-13 18:00N 51°00' W 127°37'28 7.9
2017-Aug-13 14:27N 51°28' W 127°46'1 2.7
2017-Aug-13 13:56N 51°29' W 127°45'1 0.0
2017-Aug-12 19:20N 51°29' W 127°46'2 7.3
2017-Aug-12 19:00N 51°31' W 127°48'5 8.5
2017-Aug-12 18:24N 51°36' W 127°48'3 7.0
2017-Aug-12 18:00N 51°38' W 127°51'4 8.2
2017-Aug-12 17:29N 51°39' W 127°58'4 7.7
2017-Aug-12 17:00N 51°39' W 128°04'3 6.4
2017-Aug-12 16:31N 51°42' W 128°06'4 8.3
2017-Aug-12 16:00N 51°45' W 128°10'4 8.4
2017-Aug-12 15:30N 51°50' W 128°10'2 3.6
2017-Aug-12 15:00N 51°50' W 128°13'0 0.3
2017-Aug-12 13:23N 51°50' W 128°13'0 0.0
2017-Aug-12 12:53N 51°50' W 128°13'0 0.0
2017-Aug-12 12:23N 51°50' W 128°13'0 0.0
2017-Aug-12 11:56N 51°50' W 128°13'0 0.0
2017-Aug-12 11:23N 51°50' W 128°13'0 0.0
2017-Aug-12 10:59N 51°50' W 128°13'0 0.0
2017-Aug-12 08:29N 51°50' W 128°13'0 0.0
2017-Aug-12 07:59N 51°50' W 128°13'0 0.0
2017-Aug-12 07:23N 51°50' W 128°13'0 0.0
2017-Aug-12 06:56N 51°50' W 128°13'0 0.0
2017-Aug-12 06:23N 51°50' W 128°13'0 0.0
2017-Aug-12 05:56N 51°50' W 128°13'0 0.0
2017-Aug-12 05:23N 51°50' W 128°13'0 0.0
2017-Aug-12 03:17N 51°50' W 128°13'0 0.0
2017-Aug-12 02:47N 51°50' W 128°13'0 0.0
2017-Aug-11 22:59N 51°50' W 128°13'0 0.0
2017-Aug-11 22:17N 51°50' W 128°13'0 0.0
2017-Aug-11 21:59N 51°50' W 128°13'0 0.2
2017-Aug-11 20:13N 51°50' W 128°13'  

Dump ship's entire track history